sensor_id;sensor_type;location;lat;lon;timestamp;temperature;humidity
2212;DHT22;48849;48.758;9.158;2023-10-13T00:01:47;19.40;99.90
2212;DHT22;48849;48.758;9.158;2023-10-13T00:04:15;19.40;99.90
2212;DHT22;48849;48.758;9.158;2023-10-13T00:06:42;19.40;99.90
2212;DHT22;48849;48.758;9.158;2023-10-13T00:09:10;19.40;99.90
2212;DHT22;48849;48.758;9.158;2023-10-13T00:11:41;19.40;99.90
2212;DHT22;48849;48.758;9.158;2023-10-13T00:14:11;19.30;99.90
2212;DHT22;48849;48.758;9.158;2023-10-13T00:16:41;19.30;99.90
2212;DHT22;48849;48.758;9.158;2023-10-13T00:19:08;19.30;99.90
2212;DHT22;48849;48.758;9.158;2023-10-13T00:21:40;19.30;99.90
2212;DHT22;48849;48.758;9.158;2023-10-13T00:24:07;19.30;99.90
2212;DHT22;48849;48.758;9.158;2023-10-13T00:26:39;19.30;99.90
2212;DHT22;48849;48.758;9.158;2023-10-13T00:29:08;19.20;99.90
2212;DHT22;48849;48.758;9.158;2023-10-13T00:31:41;19.30;99.90
2212;DHT22;48849;48.758;9.158;2023-10-13T00:34:09;19.30;99.90
2212;DHT22;48849;48.758;9.158;2023-10-13T00:36:37;19.20;99.90
2212;DHT22;48849;48.758;9.158;2023-10-13T00:39:14;19.20;99.90
2212;DHT22;48849;48.758;9.158;2023-10-13T00:41:42;19.20;99.90
2212;DHT22;48849;48.758;9.158;2023-10-13T00:44:17;19.20;99.90
2212;DHT22;48849;48.758;9.158;2023-10-13T00:46:51;19.20;99.90
2212;DHT22;48849;48.758;9.158;2023-10-13T00:49:21;19.20;99.90
2212;DHT22;48849;48.758;9.158;2023-10-13T00:51:48;19.20;99.90
2212;DHT22;48849;48.758;9.158;2023-10-13T00:54:17;19.20;99.90
2212;DHT22;48849;48.758;9.158;2023-10-13T00:56:52;19.10;99.90
2212;DHT22;48849;48.758;9.158;2023-10-13T00:59:23;19.10;99.90
2212;DHT22;48849;48.758;9.158;2023-10-13T01:01:50;19.10;99.90
2212;DHT22;48849;48.758;9.158;2023-10-13T01:04:20;19.10;99.90
2212;DHT22;48849;48.758;9.158;2023-10-13T01:06:48;19.10;99.90
2212;DHT22;48849;48.758;9.158;2023-10-13T01:09:17;19.10;99.90
2212;DHT22;48849;48.758;9.158;2023-10-13T01:11:45;19.10;99.90
2212;DHT22;48849;48.758;9.158;2023-10-13T01:14:14;19.10;99.90
2212;DHT22;48849;48.758;9.158;2023-10-13T01:16:42;19.10;99.90
2212;DHT22;48849;48.758;9.158;2023-10-13T01:19:10;19.10;99.90
2212;DHT22;48849;48.758;9.158;2023-10-13T01:21:38;19.10;99.90
2212;DHT22;48849;48.758;9.158;2023-10-13T01:24:08;19.10;99.90
2212;DHT22;48849;48.758;9.158;2023-10-13T01:26:34;19.10;99.90
2212;DHT22;48849;48.758;9.158;2023-10-13T01:29:10;19.10;99.90
2212;DHT22;48849;48.758;9.158;2023-10-13T01:31:58;19.00;99.90
2212;DHT22;48849;48.758;9.158;2023-10-13T01:34:29;19.00;99.90
2212;DHT22;48849;48.758;9.158;2023-10-13T01:36:59;19.00;99.90
2212;DHT22;48849;48.758;9.158;2023-10-13T01:39:54;19.00;99.90
2212;DHT22;48849;48.758;9.158;2023-10-13T01:42:34;18.90;99.90
2212;DHT22;48849;48.758;9.158;2023-10-13T01:45:08;19.00;99.90
2212;DHT22;48849;48.758;9.158;2023-10-13T01:47:43;19.00;99.90
2212;DHT22;48849;48.758;9.158;2023-10-13T01:50:19;19.00;99.90
2212;DHT22;48849;48.758;9.158;2023-10-13T01:52:50;18.90;99.90
2212;DHT22;48849;48.758;9.158;2023-10-13T01:55:42;18.90;99.90
2212;DHT22;48849;48.758;9.158;2023-10-13T01:58:12;18.90;99.90
2212;DHT22;48849;48.758;9.158;2023-10-13T02:00:44;18.90;99.90
2212;DHT22;48849;48.758;9.158;2023-10-13T02:03:13;18.90;99.90
2212;DHT22;48849;48.758;9.158;2023-10-13T02:06:04;19.00;99.90
2212;DHT22;48849;48.758;9.158;2023-10-13T02:08:42;18.90;99.90
2212;DHT22;48849;48.758;9.158;2023-10-13T02:11:20;18.90;99.90
2212;DHT22;48849;48.758;9.158;2023-10-13T02:14:21;18.90;99.90
2212;DHT22;48849;48.758;9.158;2023-10-13T02:16:57;18.90;99.90
2212;DHT22;48849;48.758;9.158;2023-10-13T02:19:54;18.90;99.90
2212;DHT22;48849;48.758;9.158;2023-10-13T02:22:43;18.80;99.90
2212;DHT22;48849;48.758;9.158;2023-10-13T02:25:45;18.80;99.90
2212;DHT22;48849;48.758;9.158;2023-10-13T02:28:39;18.80;99.90
2212;DHT22;48849;48.758;9.158;2023-10-13T02:31:18;18.80;99.90
2212;DHT22;48849;48.758;9.158;2023-10-13T02:34:06;18.80;99.90
2212;DHT22;48849;48.758;9.158;2023-10-13T02:36:47;18.80;99.90
2212;DHT22;48849;48.758;9.158;2023-10-13T02:39:35;18.80;99.90
2212;DHT22;48849;48.758;9.158;2023-10-13T02:42:48;18.80;99.90
2212;DHT22;48849;48.758;9.158;2023-10-13T02:45:24;18.80;99.90
2212;DHT22;48849;48.758;9.158;2023-10-13T02:47:51;18.80;99.90
2212;DHT22;48849;48.758;9.158;2023-10-13T02:50:43;18.70;99.90
2212;DHT22;48849;48.758;9.158;2023-10-13T02:53:29;18.70;99.90
2212;DHT22;48849;48.758;9.158;2023-10-13T02:55:56;18.70;99.90
2212;DHT22;48849;48.758;9.158;2023-10-13T02:58:36;18.70;99.90
2212;DHT22;48849;48.758;9.158;2023-10-13T03:01:12;18.70;99.90
2212;DHT22;48849;48.758;9.158;2023-10-13T03:04:03;18.70;99.90
2212;DHT22;48849;48.758;9.158;2023-10-13T03:06:46;18.70;99.90
2212;DHT22;48849;48.758;9.158;2023-10-13T03:09:17;18.70;99.90
2212;DHT22;48849;48.758;9.158;2023-10-13T03:11:56;18.70;99.90
2212;DHT22;48849;48.758;9.158;2023-10-13T03:14:50;18.70;99.90
2212;DHT22;48849;48.758;9.158;2023-10-13T03:18:03;18.70;99.90
2212;DHT22;48849;48.758;9.158;2023-10-13T03:20:40;18.70;99.90
2212;DHT22;48849;48.758;9.158;2023-10-13T03:23:36;18.70;99.90
2212;DHT22;48849;48.758;9.158;2023-10-13T03:26:18;18.60;99.90
2212;DHT22;48849;48.758;9.158;2023-10-13T03:28:48;18.60;99.90
2212;DHT22;48849;48.758;9.158;2023-10-13T03:31:47;18.60;99.90
2212;DHT22;48849;48.758;9.158;2023-10-13T03:34:38;18.60;99.90
2212;DHT22;48849;48.758;9.158;2023-10-13T03:37:37;18.60;99.90
2212;DHT22;48849;48.758;9.158;2023-10-13T03:40:18;18.60;99.90
2212;DHT22;48849;48.758;9.158;2023-10-13T03:43:03;18.60;99.90
2212;DHT22;48849;48.758;9.158;2023-10-13T03:45:59;18.60;99.90
2212;DHT22;48849;48.758;9.158;2023-10-13T03:48:46;18.60;99.90
2212;DHT22;48849;48.758;9.158;2023-10-13T03:51:45;18.60;99.90
2212;DHT22;48849;48.758;9.158;2023-10-13T03:54:30;18.60;99.90
2212;DHT22;48849;48.758;9.158;2023-10-13T03:57:13;18.60;99.90
2212;DHT22;48849;48.758;9.158;2023-10-13T03:59:58;18.60;99.90
2212;DHT22;48849;48.758;9.158;2023-10-13T04:02:42;18.60;99.90
2212;DHT22;48849;48.758;9.158;2023-10-13T04:05:37;18.50;99.90
2212;DHT22;48849;48.758;9.158;2023-10-13T04:08:37;18.50;99.90
2212;DHT22;48849;48.758;9.158;2023-10-13T04:11:38;18.50;99.90
2212;DHT22;48849;48.758;9.158;2023-10-13T04:14:33;18.60;99.90
2212;DHT22;48849;48.758;9.158;2023-10-13T04:17:25;18.50;99.90
2212;DHT22;48849;48.758;9.158;2023-10-13T04:20:03;18.50;99.90
2212;DHT22;48849;48.758;9.158;2023-10-13T04:22:56;18.50;99.90
2212;DHT22;48849;48.758;9.158;2023-10-13T04:26:04;18.50;99.90
2212;DHT22;48849;48.758;9.158;2023-10-13T04:29:13;18.50;99.90
2212;DHT22;48849;48.758;9.158;2023-10-13T04:32:01;18.50;99.90
2212;DHT22;48849;48.758;9.158;2023-10-13T04:34:45;18.50;99.90
2212;DHT22;48849;48.758;9.158;2023-10-13T04:37:47;18.50;99.90
2212;DHT22;48849;48.758;9.158;2023-10-13T04:40:28;18.50;99.90
2212;DHT22;48849;48.758;9.158;2023-10-13T04:43:06;18.50;99.90
2212;DHT22;48849;48.758;9.158;2023-10-13T04:46:06;18.50;99.90
2212;DHT22;48849;48.758;9.158;2023-10-13T04:49:08;18.50;99.90
2212;DHT22;48849;48.758;9.158;2023-10-13T04:51:52;18.50;99.90
2212;DHT22;48849;48.758;9.158;2023-10-13T04:54:37;18.40;99.90
2212;DHT22;48849;48.758;9.158;2023-10-13T04:57:21;18.40;99.90
2212;DHT22;48849;48.758;9.158;2023-10-13T05:00:08;18.40;99.90
2212;DHT22;48849;48.758;9.158;2023-10-13T05:03:14;18.40;99.90
2212;DHT22;48849;48.758;9.158;2023-10-13T05:06:28;18.50;99.90
2212;DHT22;48849;48.758;9.158;2023-10-13T05:09:13;18.40;99.90
2212;DHT22;48849;48.758;9.158;2023-10-13T05:12:17;18.30;99.90
2212;DHT22;48849;48.758;9.158;2023-10-13T05:15:11;18.30;99.90
2212;DHT22;48849;48.758;9.158;2023-10-13T05:18:03;18.40;99.90
2212;DHT22;48849;48.758;9.158;2023-10-13T05:20:48;18.30;99.90
2212;DHT22;48849;48.758;9.158;2023-10-13T05:23:32;18.30;99.90
2212;DHT22;48849;48.758;9.158;2023-10-13T05:26:20;18.30;99.90
2212;DHT22;48849;48.758;9.158;2023-10-13T05:29:06;18.30;99.90
2212;DHT22;48849;48.758;9.158;2023-10-13T05:31:58;18.30;99.90
2212;DHT22;48849;48.758;9.158;2023-10-13T05:34:50;18.30;99.90
2212;DHT22;48849;48.758;9.158;2023-10-13T05:37:44;18.30;99.90
2212;DHT22;48849;48.758;9.158;2023-10-13T05:40:30;18.30;99.90
2212;DHT22;48849;48.758;9.158;2023-10-13T05:43:21;18.30;99.90
2212;DHT22;48849;48.758;9.158;2023-10-13T05:46:08;18.30;99.90
2212;DHT22;48849;48.758;9.158;2023-10-13T05:49:24;18.30;99.90
2212;DHT22;48849;48.758;9.158;2023-10-13T05:52:15;18.30;99.90
2212;DHT22;48849;48.758;9.158;2023-10-13T05:55:05;18.20;99.90
2212;DHT22;48849;48.758;9.158;2023-10-13T05:57:50;18.30;99.90
2212;DHT22;48849;48.758;9.158;2023-10-13T06:00:41;18.30;99.90
2212;DHT22;48849;48.758;9.158;2023-10-13T06:03:22;18.30;99.90
2212;DHT22;48849;48.758;9.158;2023-10-13T06:06:08;18.30;99.90
2212;DHT22;48849;48.758;9.158;2023-10-13T06:08:55;18.40;99.90
2212;DHT22;48849;48.758;9.158;2023-10-13T06:11:39;18.50;99.90
2212;DHT22;48849;48.758;9.158;2023-10-13T06:14:23;18.50;99.90
2212;DHT22;48849;48.758;9.158;2023-10-13T06:17:07;18.50;99.90
2212;DHT22;48849;48.758;9.158;2023-10-13T06:19:53;18.50;99.90
2212;DHT22;48849;48.758;9.158;2023-10-13T06:22:58;18.50;99.90
2212;DHT22;48849;48.758;9.158;2023-10-13T06:28:44;18.50;99.90
2212;DHT22;48849;48.758;9.158;2023-10-13T06:31:18;18.50;99.90
2212;DHT22;48849;48.758;9.158;2023-10-13T06:33:48;18.50;99.90
2212;DHT22;48849;48.758;9.158;2023-10-13T06:36:17;18.50;99.90
2212;DHT22;48849;48.758;9.158;2023-10-13T06:38:47;18.50;99.90
2212;DHT22;48849;48.758;9.158;2023-10-13T06:41:20;18.50;99.90
2212;DHT22;48849;48.758;9.158;2023-10-13T06:43:56;18.50;99.90
2212;DHT22;48849;48.758;9.158;2023-10-13T06:46:31;18.50;99.90
2212;DHT22;48849;48.758;9.158;2023-10-13T06:49:10;18.50;99.90
2212;DHT22;48849;48.758;9.158;2023-10-13T06:51:47;18.60;99.90
2212;DHT22;48849;48.758;9.158;2023-10-13T06:54:18;18.50;99.90
2212;DHT22;48849;48.758;9.158;2023-10-13T06:56:50;18.60;99.90
2212;DHT22;48849;48.758;9.158;2023-10-13T06:59:27;18.60;99.90
2212;DHT22;48849;48.758;9.158;2023-10-13T07:01:58;18.70;99.90
2212;DHT22;48849;48.758;9.158;2023-10-13T07:04:32;18.60;99.90
2212;DHT22;48849;48.758;9.158;2023-10-13T07:07:05;18.60;99.90
2212;DHT22;48849;48.758;9.158;2023-10-13T07:09:37;18.60;99.90
2212;DHT22;48849;48.758;9.158;2023-10-13T07:12:18;18.60;99.90
2212;DHT22;48849;48.758;9.158;2023-10-13T07:14:49;18.60;99.90
2212;DHT22;48849;48.758;9.158;2023-10-13T07:17:25;18.60;99.90
2212;DHT22;48849;48.758;9.158;2023-10-13T07:19:56;18.60;99.90
2212;DHT22;48849;48.758;9.158;2023-10-13T07:22:39;18.60;99.90
2212;DHT22;48849;48.758;9.158;2023-10-13T07:25:22;18.60;99.90
2212;DHT22;48849;48.758;9.158;2023-10-13T07:27:57;18.60;99.90
2212;DHT22;48849;48.758;9.158;2023-10-13T07:30:39;18.60;99.90
2212;DHT22;48849;48.758;9.158;2023-10-13T07:33:07;18.70;99.90
2212;DHT22;48849;48.758;9.158;2023-10-13T07:35:38;18.60;99.90
2212;DHT22;48849;48.758;9.158;2023-10-13T07:38:10;18.70;99.90
2212;DHT22;48849;48.758;9.158;2023-10-13T07:40:43;18.70;99.90
2212;DHT22;48849;48.758;9.158;2023-10-13T07:43:18;18.60;99.90
2212;DHT22;48849;48.758;9.158;2023-10-13T07:45:47;18.70;99.90
2212;DHT22;48849;48.758;9.158;2023-10-13T07:48:17;18.70;99.90
2212;DHT22;48849;48.758;9.158;2023-10-13T07:50:46;18.70;99.90
2212;DHT22;48849;48.758;9.158;2023-10-13T07:53:14;18.70;99.90
2212;DHT22;48849;48.758;9.158;2023-10-13T07:55:50;18.70;99.90
2212;DHT22;48849;48.758;9.158;2023-10-13T07:58:21;18.70;99.90
2212;DHT22;48849;48.758;9.158;2023-10-13T08:01:18;18.70;99.90
2212;DHT22;48849;48.758;9.158;2023-10-13T08:03:45;18.70;99.90
2212;DHT22;48849;48.758;9.158;2023-10-13T08:06:17;18.70;99.90
2212;DHT22;48849;48.758;9.158;2023-10-13T08:08:51;18.70;99.90
2212;DHT22;48849;48.758;9.158;2023-10-13T08:11:28;18.80;99.90
2212;DHT22;48849;48.758;9.158;2023-10-13T08:14:05;18.80;99.90
2212;DHT22;48849;48.758;9.158;2023-10-13T08:16:48;18.80;99.90
2212;DHT22;48849;48.758;9.158;2023-10-13T08:19:28;18.90;99.90
2212;DHT22;48849;48.758;9.158;2023-10-13T08:22:08;18.70;99.90
2212;DHT22;48849;48.758;9.158;2023-10-13T08:24:51;18.80;99.90
2212;DHT22;48849;48.758;9.158;2023-10-13T08:27:41;18.80;99.90
2212;DHT22;48849;48.758;9.158;2023-10-13T08:30:26;18.80;99.90
2212;DHT22;48849;48.758;9.158;2023-10-13T08:32:55;18.80;99.90
2212;DHT22;48849;48.758;9.158;2023-10-13T08:35:24;18.90;99.90
2212;DHT22;48849;48.758;9.158;2023-10-13T08:38:08;18.90;99.90
2212;DHT22;48849;48.758;9.158;2023-10-13T08:40:44;18.90;99.90
2212;DHT22;48849;48.758;9.158;2023-10-13T08:43:40;19.00;99.90
2212;DHT22;48849;48.758;9.158;2023-10-13T08:46:10;19.00;99.90
2212;DHT22;48849;48.758;9.158;2023-10-13T08:48:58;19.00;99.90
2212;DHT22;48849;48.758;9.158;2023-10-13T08:51:39;19.00;99.90
2212;DHT22;48849;48.758;9.158;2023-10-13T08:54:14;19.30;99.90
2212;DHT22;48849;48.758;9.158;2023-10-13T08:56:59;19.30;99.90
2212;DHT22;48849;48.758;9.158;2023-10-13T08:59:39;19.40;99.90
2212;DHT22;48849;48.758;9.158;2023-10-13T09:02:17;19.50;99.90
2212;DHT22;48849;48.758;9.158;2023-10-13T09:04:48;19.50;99.90
2212;DHT22;48849;48.758;9.158;2023-10-13T09:07:25;19.50;99.90
2212;DHT22;48849;48.758;9.158;2023-10-13T09:09:51;19.50;99.90
2212;DHT22;48849;48.758;9.158;2023-10-13T09:12:37;19.50;99.90
2212;DHT22;48849;48.758;9.158;2023-10-13T09:15:28;19.50;99.90
2212;DHT22;48849;48.758;9.158;2023-10-13T09:22:07;19.60;99.90
2212;DHT22;48849;48.758;9.158;2023-10-13T09:30:46;19.90;99.90
2212;DHT22;48849;48.758;9.158;2023-10-13T09:33:18;19.90;99.90
2212;DHT22;48849;48.758;9.158;2023-10-13T09:35:54;19.90;99.90
2212;DHT22;48849;48.758;9.158;2023-10-13T09:38:25;20.00;99.90
2212;DHT22;48849;48.758;9.158;2023-10-13T09:40:51;19.90;99.90
2212;DHT22;48849;48.758;9.158;2023-10-13T09:43:23;20.00;99.90
2212;DHT22;48849;48.758;9.158;2023-10-13T09:45:56;20.00;99.90
2212;DHT22;48849;48.758;9.158;2023-10-13T09:48:31;20.10;99.90
2212;DHT22;48849;48.758;9.158;2023-10-13T09:51:00;20.20;99.90
2212;DHT22;48849;48.758;9.158;2023-10-13T09:53:29;20.20;99.90
2212;DHT22;48849;48.758;9.158;2023-10-13T09:56:02;20.20;99.90
2212;DHT22;48849;48.758;9.158;2023-10-13T09:58:41;20.20;99.90
2212;DHT22;48849;48.758;9.158;2023-10-13T10:01:24;20.20;99.90
2212;DHT22;48849;48.758;9.158;2023-10-13T10:04:07;20.20;99.90
2212;DHT22;48849;48.758;9.158;2023-10-13T10:06:35;20.20;99.90
2212;DHT22;48849;48.758;9.158;2023-10-13T10:09:05;20.30;99.90
2212;DHT22;48849;48.758;9.158;2023-10-13T10:12:08;20.30;99.90
2212;DHT22;48849;48.758;9.158;2023-10-13T10:17:46;20.40;99.90
2212;DHT22;48849;48.758;9.158;2023-10-13T10:20:28;20.40;99.90
2212;DHT22;48849;48.758;9.158;2023-10-13T10:23:05;20.40;99.90
2212;DHT22;48849;48.758;9.158;2023-10-13T10:25:50;20.50;99.90
2212;DHT22;48849;48.758;9.158;2023-10-13T10:28:17;20.60;99.90
2212;DHT22;48849;48.758;9.158;2023-10-13T10:30:45;20.60;99.90
2212;DHT22;48849;48.758;9.158;2023-10-13T10:33:17;20.70;99.90
2212;DHT22;48849;48.758;9.158;2023-10-13T10:36:00;20.80;99.90
2212;DHT22;48849;48.758;9.158;2023-10-13T10:38:54;20.90;99.90
2212;DHT22;48849;48.758;9.158;2023-10-13T10:41:33;21.10;99.90
2212;DHT22;48849;48.758;9.158;2023-10-13T10:44:14;21.10;99.90
2212;DHT22;48849;48.758;9.158;2023-10-13T10:46:55;21.10;99.90
2212;DHT22;48849;48.758;9.158;2023-10-13T10:49:29;21.10;99.90
2212;DHT22;48849;48.758;9.158;2023-10-13T10:52:17;21.20;99.90
2212;DHT22;48849;48.758;9.158;2023-10-13T10:55:09;21.20;99.90
2212;DHT22;48849;48.758;9.158;2023-10-13T11:01:08;21.20;99.90
2212;DHT22;48849;48.758;9.158;2023-10-13T11:03:38;21.40;99.90
2212;DHT22;48849;48.758;9.158;2023-10-13T11:06:14;21.10;99.90
2212;DHT22;48849;48.758;9.158;2023-10-13T11:08:45;21.30;99.90
2212;DHT22;48849;48.758;9.158;2023-10-13T11:11:32;21.40;99.90
2212;DHT22;48849;48.758;9.158;2023-10-13T11:14:07;21.50;99.90
2212;DHT22;48849;48.758;9.158;2023-10-13T11:16:56;21.70;99.90
2212;DHT22;48849;48.758;9.158;2023-10-13T11:19:39;21.90;99.90
2212;DHT22;48849;48.758;9.158;2023-10-13T11:22:19;22.00;99.90
2212;DHT22;48849;48.758;9.158;2023-10-13T11:28:17;22.30;99.90
2212;DHT22;48849;48.758;9.158;2023-10-13T11:30:57;22.40;99.90
2212;DHT22;48849;48.758;9.158;2023-10-13T11:33:29;22.50;99.90
2212;DHT22;48849;48.758;9.158;2023-10-13T11:36:12;22.60;99.90
2212;DHT22;48849;48.758;9.158;2023-10-13T11:39:18;22.70;99.90
2212;DHT22;48849;48.758;9.158;2023-10-13T11:41:51;22.80;99.90
2212;DHT22;48849;48.758;9.158;2023-10-13T11:44:27;23.10;99.90
2212;DHT22;48849;48.758;9.158;2023-10-13T11:47:20;23.30;99.90
2212;DHT22;48849;48.758;9.158;2023-10-13T11:50:24;23.50;99.90
2212;DHT22;48849;48.758;9.158;2023-10-13T11:53:03;23.90;99.90
2212;DHT22;48849;48.758;9.158;2023-10-13T11:59:02;24.50;99.90
2212;DHT22;48849;48.758;9.158;2023-10-13T12:01:31;24.40;99.90
2212;DHT22;48849;48.758;9.158;2023-10-13T12:04:37;24.40;99.90
2212;DHT22;48849;48.758;9.158;2023-10-13T12:07:23;24.30;99.90
2212;DHT22;48849;48.758;9.158;2023-10-13T12:10:18;24.10;99.90
2212;DHT22;48849;48.758;9.158;2023-10-13T12:13:12;24.00;99.90
2212;DHT22;48849;48.758;9.158;2023-10-13T12:15:46;23.80;99.90
2212;DHT22;48849;48.758;9.158;2023-10-13T12:18:22;23.70;99.90
2212;DHT22;48849;48.758;9.158;2023-10-13T12:21:13;23.70;99.90
2212;DHT22;48849;48.758;9.158;2023-10-13T12:23:50;23.70;99.90
2212;DHT22;48849;48.758;9.158;2023-10-13T12:29:57;23.80;99.90
2212;DHT22;48849;48.758;9.158;2023-10-13T12:32:35;23.70;99.90
2212;DHT22;48849;48.758;9.158;2023-10-13T12:35:22;23.60;99.90
2212;DHT22;48849;48.758;9.158;2023-10-13T12:38:14;23.50;99.90
2212;DHT22;48849;48.758;9.158;2023-10-13T12:41:11;23.30;99.90
2212;DHT22;48849;48.758;9.158;2023-10-13T12:44:01;23.20;99.90
2212;DHT22;48849;48.758;9.158;2023-10-13T12:46:50;23.10;99.90
2212;DHT22;48849;48.758;9.158;2023-10-13T12:49:36;23.10;99.90
2212;DHT22;48849;48.758;9.158;2023-10-13T12:52:29;23.00;99.90
2212;DHT22;48849;48.758;9.158;2023-10-13T12:55:11;22.90;99.90
2212;DHT22;48849;48.758;9.158;2023-10-13T12:57:45;22.90;99.90
2212;DHT22;48849;48.758;9.158;2023-10-13T13:00:17;22.90;99.90
2212;DHT22;48849;48.758;9.158;2023-10-13T13:03:00;22.80;99.90
2212;DHT22;48849;48.758;9.158;2023-10-13T13:05:36;22.80;99.90
2212;DHT22;48849;48.758;9.158;2023-10-13T13:08:10;22.70;99.90
2212;DHT22;48849;48.758;9.158;2023-10-13T13:10:47;22.70;99.90
2212;DHT22;48849;48.758;9.158;2023-10-13T13:13:14;22.60;99.90
2212;DHT22;48849;48.758;9.158;2023-10-13T13:15:52;22.60;99.90
2212;DHT22;48849;48.758;9.158;2023-10-13T13:18:25;22.50;99.90
2212;DHT22;48849;48.758;9.158;2023-10-13T13:20:52;22.50;99.90
2212;DHT22;48849;48.758;9.158;2023-10-13T13:23:24;22.40;99.90
2212;DHT22;48849;48.758;9.158;2023-10-13T13:25:59;22.40;99.90
2212;DHT22;48849;48.758;9.158;2023-10-13T13:28:44;22.40;99.90
2212;DHT22;48849;48.758;9.158;2023-10-13T13:31:17;22.40;99.90
2212;DHT22;48849;48.758;9.158;2023-10-13T13:33:57;22.40;99.90
2212;DHT22;48849;48.758;9.158;2023-10-13T13:36:27;22.50;99.90
2212;DHT22;48849;48.758;9.158;2023-10-13T13:38:55;22.50;99.90
2212;DHT22;48849;48.758;9.158;2023-10-13T13:41:30;22.60;99.90
2212;DHT22;48849;48.758;9.158;2023-10-13T13:44:03;22.60;99.90
2212;DHT22;48849;48.758;9.158;2023-10-13T13:46:39;22.60;99.90
2212;DHT22;48849;48.758;9.158;2023-10-13T13:49:10;22.70;99.90
2212;DHT22;48849;48.758;9.158;2023-10-13T13:51:54;22.70;99.90
2212;DHT22;48849;48.758;9.158;2023-10-13T13:54:24;22.70;99.90
2212;DHT22;48849;48.758;9.158;2023-10-13T13:57:08;22.70;99.90
2212;DHT22;48849;48.758;9.158;2023-10-13T13:59:38;22.70;99.90
2212;DHT22;48849;48.758;9.158;2023-10-13T14:02:05;22.70;99.90
2212;DHT22;48849;48.758;9.158;2023-10-13T14:04:52;22.70;99.90
2212;DHT22;48849;48.758;9.158;2023-10-13T14:07:22;22.60;99.90
2212;DHT22;48849;48.758;9.158;2023-10-13T14:09:52;22.60;99.90
2212;DHT22;48849;48.758;9.158;2023-10-13T14:12:31;22.50;99.90
2212;DHT22;48849;48.758;9.158;2023-10-13T14:15:08;22.50;99.90
2212;DHT22;48849;48.758;9.158;2023-10-13T14:17:49;22.40;99.90
2212;DHT22;48849;48.758;9.158;2023-10-13T14:20:17;22.50;99.90
2212;DHT22;48849;48.758;9.158;2023-10-13T14:22:47;22.40;99.90
2212;DHT22;48849;48.758;9.158;2023-10-13T14:25:15;22.40;99.90
2212;DHT22;48849;48.758;9.158;2023-10-13T14:27:42;22.40;99.90
2212;DHT22;48849;48.758;9.158;2023-10-13T14:30:15;22.50;99.90
2212;DHT22;48849;48.758;9.158;2023-10-13T14:32:48;22.50;99.90
2212;DHT22;48849;48.758;9.158;2023-10-13T14:35:20;22.50;99.90
2212;DHT22;48849;48.758;9.158;2023-10-13T14:37:56;22.50;99.90
2212;DHT22;48849;48.758;9.158;2023-10-13T14:40:24;22.40;99.90
2212;DHT22;48849;48.758;9.158;2023-10-13T14:42:51;22.40;99.90
2212;DHT22;48849;48.758;9.158;2023-10-13T14:45:31;22.40;99.90
2212;DHT22;48849;48.758;9.158;2023-10-13T14:47:59;22.40;99.90
2212;DHT22;48849;48.758;9.158;2023-10-13T14:50:32;22.30;99.90
2212;DHT22;48849;48.758;9.158;2023-10-13T14:53:00;22.20;99.90
2212;DHT22;48849;48.758;9.158;2023-10-13T14:55:28;22.20;99.90
2212;DHT22;48849;48.758;9.158;2023-10-13T14:58:03;22.10;99.90
2212;DHT22;48849;48.758;9.158;2023-10-13T15:00:33;22.10;99.90
2212;DHT22;48849;48.758;9.158;2023-10-13T15:03:01;22.10;99.90
2212;DHT22;48849;48.758;9.158;2023-10-13T15:05:28;22.00;99.90
2212;DHT22;48849;48.758;9.158;2023-10-13T15:07:58;22.00;99.90
2212;DHT22;48849;48.758;9.158;2023-10-13T15:10:32;22.00;99.90
2212;DHT22;48849;48.758;9.158;2023-10-13T15:13:03;22.00;99.90
2212;DHT22;48849;48.758;9.158;2023-10-13T15:15:32;22.00;99.90
2212;DHT22;48849;48.758;9.158;2023-10-13T15:18:01;22.00;99.90
2212;DHT22;48849;48.758;9.158;2023-10-13T15:20:28;21.90;99.90
2212;DHT22;48849;48.758;9.158;2023-10-13T15:22:58;21.90;99.90
2212;DHT22;48849;48.758;9.158;2023-10-13T15:32:29;21.70;99.90
2212;DHT22;48849;48.758;9.158;2023-10-13T15:35:29;21.70;99.90
2212;DHT22;48849;48.758;9.158;2023-10-13T15:37:57;21.70;99.90
2212;DHT22;48849;48.758;9.158;2023-10-13T15:41:42;21.60;99.90
2212;DHT22;48849;48.758;9.158;2023-10-13T15:44:11;21.60;99.90
2212;DHT22;48849;48.758;9.158;2023-10-13T15:47:05;21.50;99.90
2212;DHT22;48849;48.758;9.158;2023-10-13T15:49:45;21.50;99.90
2212;DHT22;48849;48.758;9.158;2023-10-13T15:56:05;21.50;99.90
2212;DHT22;48849;48.758;9.158;2023-10-13T15:58:37;21.40;99.90
2212;DHT22;48849;48.758;9.158;2023-10-13T16:01:05;21.40;99.90
2212;DHT22;48849;48.758;9.158;2023-10-13T16:03:33;21.40;99.90
2212;DHT22;48849;48.758;9.158;2023-10-13T16:06:02;21.30;99.90
2212;DHT22;48849;48.758;9.158;2023-10-13T16:08:35;21.30;99.90
2212;DHT22;48849;48.758;9.158;2023-10-13T16:11:05;21.30;99.90
2212;DHT22;48849;48.758;9.158;2023-10-13T16:13:34;21.30;99.90
2212;DHT22;48849;48.758;9.158;2023-10-13T16:16:01;21.30;99.90
2212;DHT22;48849;48.758;9.158;2023-10-13T16:18:28;21.20;99.90
2212;DHT22;48849;48.758;9.158;2023-10-13T16:20:58;21.20;99.90
2212;DHT22;48849;48.758;9.158;2023-10-13T16:23:25;21.20;99.90
2212;DHT22;48849;48.758;9.158;2023-10-13T16:25:53;21.20;99.90
2212;DHT22;48849;48.758;9.158;2023-10-13T16:28:24;21.20;99.90
2212;DHT22;48849;48.758;9.158;2023-10-13T16:30:51;21.20;99.90
2212;DHT22;48849;48.758;9.158;2023-10-13T16:33:20;21.20;99.90
2212;DHT22;48849;48.758;9.158;2023-10-13T16:35:46;21.20;99.90
2212;DHT22;48849;48.758;9.158;2023-10-13T16:38:15;21.10;99.90
2212;DHT22;48849;48.758;9.158;2023-10-13T16:40:42;21.10;99.90
2212;DHT22;48849;48.758;9.158;2023-10-13T16:43:09;21.10;99.90
2212;DHT22;48849;48.758;9.158;2023-10-13T16:45:39;21.10;99.90
2212;DHT22;48849;48.758;9.158;2023-10-13T16:48:10;21.10;99.90
2212;DHT22;48849;48.758;9.158;2023-10-13T16:50:39;21.10;99.90
2212;DHT22;48849;48.758;9.158;2023-10-13T16:53:11;21.10;99.90
2212;DHT22;48849;48.758;9.158;2023-10-13T16:55:39;21.10;99.90
2212;DHT22;48849;48.758;9.158;2023-10-13T16:58:08;21.10;99.90
2212;DHT22;48849;48.758;9.158;2023-10-13T17:00:40;21.00;99.90
2212;DHT22;48849;48.758;9.158;2023-10-13T17:03:08;21.00;99.90
2212;DHT22;48849;48.758;9.158;2023-10-13T17:05:43;21.00;99.90
2212;DHT22;48849;48.758;9.158;2023-10-13T17:08:33;20.90;99.90
2212;DHT22;48849;48.758;9.158;2023-10-13T17:12:13;20.90;99.90
2212;DHT22;48849;48.758;9.158;2023-10-13T17:18:15;20.90;99.90
2212;DHT22;48849;48.758;9.158;2023-10-13T17:20:42;20.90;99.90
2212;DHT22;48849;48.758;9.158;2023-10-13T17:23:14;20.80;99.90
2212;DHT22;48849;48.758;9.158;2023-10-13T17:25:42;20.80;99.90
2212;DHT22;48849;48.758;9.158;2023-10-13T17:28:09;20.80;99.90
2212;DHT22;48849;48.758;9.158;2023-10-13T17:30:42;20.80;99.90
2212;DHT22;48849;48.758;9.158;2023-10-13T17:33:10;20.80;99.90
2212;DHT22;48849;48.758;9.158;2023-10-13T17:35:45;20.80;99.90
2212;DHT22;48849;48.758;9.158;2023-10-13T17:38:11;20.70;99.90
2212;DHT22;48849;48.758;9.158;2023-10-13T17:40:38;20.70;99.90
2212;DHT22;48849;48.758;9.158;2023-10-13T17:43:06;20.70;99.90